sensor_id;sensor_type;location;lat;lon;timestamp;pressure;altitude;pressure_sealevel;temperature;humidity
50430;BME280;36359;41.556;-8.418;2023-04-27T00:01:10;100009.59;;;17.80;100.00
50430;BME280;36359;41.556;-8.418;2023-04-27T00:03:36;100009.47;;;17.66;100.00
50430;BME280;36359;41.556;-8.418;2023-04-27T00:06:02;99999.19;;;17.75;100.00
50430;BME280;36359;41.556;-8.418;2023-04-27T00:08:28;100001.50;;;17.71;100.00
50430;BME280;36359;41.556;-8.418;2023-04-27T00:10:53;100001.06;;;17.68;100.00
50430;BME280;36359;41.556;-8.418;2023-04-27T00:13:19;100000.56;;;17.58;100.00
50430;BME280;36359;41.556;-8.418;2023-04-27T00:15:45;100000.53;;;17.44;100.00
50430;BME280;36359;41.556;-8.418;2023-04-27T00:18:10;100000.53;;;17.44;100.00
50430;BME280;36359;41.556;-8.418;2023-04-27T00:20:36;100002.22;;;17.45;100.00
50430;BME280;36359;41.556;-8.418;2023-04-27T00:23:02;99998.91;;;17.57;100.00
50430;BME280;36359;41.556;-8.418;2023-04-27T00:25:27;100006.91;;;17.58;100.00
50430;BME280;36359;41.556;-8.418;2023-04-27T00:27:53;100011.53;;;17.51;100.00
50430;BME280;36359;41.556;-8.418;2023-04-27T00:30:19;99997.97;;;17.43;100.00
50430;BME280;36359;41.556;-8.418;2023-04-27T00:32:45;100000.97;;;17.48;100.00
50430;BME280;36359;41.556;-8.418;2023-04-27T00:35:11;99997.13;;;17.42;100.00
50430;BME280;36359;41.556;-8.418;2023-04-27T00:37:36;99996.28;;;17.42;100.00
50430;BME280;36359;41.556;-8.418;2023-04-27T00:40:05;99994.69;;;17.61;100.00
50430;BME280;36359;41.556;-8.418;2023-04-27T00:42:33;99990.84;;;17.55;100.00
50430;BME280;36359;41.556;-8.418;2023-04-27T00:44:59;99991.47;;;17.51;100.00
50430;BME280;36359;41.556;-8.418;2023-04-27T00:47:25;99996.16;;;17.57;100.00
50430;BME280;36359;41.556;-8.418;2023-04-27T00:49:54;100000.56;;;17.58;100.00
50430;BME280;36359;41.556;-8.418;2023-04-27T00:52:20;100009.09;;;17.76;100.00
50430;BME280;36359;41.556;-8.418;2023-04-27T00:54:49;100008.66;;;17.66;100.00
50430;BME280;36359;41.556;-8.418;2023-04-27T00:57:16;100010.31;;;17.60;100.00
50430;BME280;36359;41.556;-8.418;2023-04-27T00:59:43;100004.50;;;17.42;100.00
50430;BME280;36359;41.556;-8.418;2023-04-27T01:02:11;100007.69;;;17.45;100.00
50430;BME280;36359;41.556;-8.418;2023-04-27T01:04:38;99994.13;;;17.37;100.00
50430;BME280;36359;41.556;-8.418;2023-04-27T01:07:04;99989.47;;;17.31;100.00
50430;BME280;36359;41.556;-8.418;2023-04-27T01:09:30;99980.19;;;17.32;100.00
50430;BME280;36359;41.556;-8.418;2023-04-27T01:11:56;99982.91;;;17.32;100.00
50430;BME280;36359;41.556;-8.418;2023-04-27T01:14:22;99981.56;;;17.15;100.00
50430;BME280;36359;41.556;-8.418;2023-04-27T01:16:50;99977.53;;;17.11;100.00
50430;BME280;36359;41.556;-8.418;2023-04-27T01:19:16;99974.84;;;16.89;100.00
50430;BME280;36359;41.556;-8.418;2023-04-27T01:21:42;99973.66;;;16.98;100.00
50430;BME280;36359;41.556;-8.418;2023-04-27T01:24:08;99968.97;;;16.92;100.00
50430;BME280;36359;41.556;-8.418;2023-04-27T01:26:36;99969.84;;;16.50;100.00
50430;BME280;36359;41.556;-8.418;2023-04-27T01:29:02;99967.28;;;16.42;100.00
50430;BME280;36359;41.556;-8.418;2023-04-27T01:31:27;99956.88;;;16.58;100.00
50430;BME280;36359;41.556;-8.418;2023-04-27T01:33:54;99951.06;;;16.68;100.00
50430;BME280;36359;41.556;-8.418;2023-04-27T01:36:19;99950.66;;;16.99;100.00
50430;BME280;36359;41.556;-8.418;2023-04-27T01:38:45;99947.38;;;17.11;100.00
50430;BME280;36359;41.556;-8.418;2023-04-27T01:41:11;99950.97;;;17.11;100.00
50430;BME280;36359;41.556;-8.418;2023-04-27T01:43:37;99951.22;;;17.16;100.00
50430;BME280;36359;41.556;-8.418;2023-04-27T01:46:08;99943.13;;;17.08;100.00
50430;BME280;36359;41.556;-8.418;2023-04-27T01:48:34;99933.25;;;17.07;100.00
50430;BME280;36359;41.556;-8.418;2023-04-27T01:51:00;99929.66;;;17.07;100.00
50430;BME280;36359;41.556;-8.418;2023-04-27T01:53:26;99925.44;;;17.11;100.00
50430;BME280;36359;41.556;-8.418;2023-04-27T01:55:52;99919.69;;;16.99;100.00
50430;BME280;36359;41.556;-8.418;2023-04-27T01:58:18;99920.13;;;17.02;100.00
50430;BME280;36359;41.556;-8.418;2023-04-27T02:00:44;99912.09;;;16.94;100.00
50430;BME280;36359;41.556;-8.418;2023-04-27T02:03:10;99911.47;;;16.99;100.00
50430;BME280;36359;41.556;-8.418;2023-04-27T02:05:36;99905.94;;;16.92;100.00
50430;BME280;36359;41.556;-8.418;2023-04-27T02:08:01;99910.41;;;17.00;100.00
50430;BME280;36359;41.556;-8.418;2023-04-27T02:10:27;99907.09;;;17.11;100.00
50430;BME280;36359;41.556;-8.418;2023-04-27T02:12:55;99916.66;;;17.22;100.00
50430;BME280;36359;41.556;-8.418;2023-04-27T02:15:21;99907.16;;;17.18;100.00
50430;BME280;36359;41.556;-8.418;2023-04-27T02:17:47;99896.75;;;17.07;100.00
50430;BME280;36359;41.556;-8.418;2023-04-27T02:20:13;99893.59;;;17.03;100.00
50430;BME280;36359;41.556;-8.418;2023-04-27T02:22:42;99879.66;;;17.05;100.00
50430;BME280;36359;41.556;-8.418;2023-04-27T02:25:12;99875.69;;;17.14;100.00
50430;BME280;36359;41.556;-8.418;2023-04-27T02:27:41;99884.00;;;17.27;100.00
50430;BME280;36359;41.556;-8.418;2023-04-27T02:30:08;99881.50;;;16.63;100.00
50430;BME280;36359;41.556;-8.418;2023-04-27T02:32:35;99883.69;;;16.74;100.00
50430;BME280;36359;41.556;-8.418;2023-04-27T02:35:01;99889.81;;;16.76;100.00
50430;BME280;36359;41.556;-8.418;2023-04-27T02:37:28;99885.72;;;16.65;100.00
50430;BME280;36359;41.556;-8.418;2023-04-27T02:39:55;99894.72;;;16.80;100.00
50430;BME280;36359;41.556;-8.418;2023-04-27T02:42:21;99903.75;;;17.09;100.00
50430;BME280;36359;41.556;-8.418;2023-04-27T02:44:47;99892.81;;;17.16;100.00
50430;BME280;36359;41.556;-8.418;2023-04-27T02:47:12;99890.25;;;17.14;100.00
50430;BME280;36359;41.556;-8.418;2023-04-27T02:49:38;99891.38;;;17.27;100.00
50430;BME280;36359;41.556;-8.418;2023-04-27T02:52:05;99878.72;;;17.25;100.00
50430;BME280;36359;41.556;-8.418;2023-04-27T02:54:31;99882.03;;;17.14;100.00
50430;BME280;36359;41.556;-8.418;2023-04-27T02:56:57;99881.41;;;17.12;100.00
50430;BME280;36359;41.556;-8.418;2023-04-27T02:59:23;99863.91;;;17.13;100.00
50430;BME280;36359;41.556;-8.418;2023-04-27T03:01:49;99871.69;;;17.10;100.00
50430;BME280;36359;41.556;-8.418;2023-04-27T03:04:14;99860.50;;;17.11;100.00
50430;BME280;36359;41.556;-8.418;2023-04-27T03:06:40;99870.31;;;16.92;100.00
50430;BME280;36359;41.556;-8.418;2023-04-27T03:09:06;99867.16;;;16.61;100.00
50430;BME280;36359;41.556;-8.418;2023-04-27T03:11:35;99883.59;;;16.32;100.00
50430;BME280;36359;41.556;-8.418;2023-04-27T03:14:03;99878.84;;;16.20;100.00
50430;BME280;36359;41.556;-8.418;2023-04-27T03:16:32;99883.19;;;16.35;100.00
50430;BME280;36359;41.556;-8.418;2023-04-27T03:18:58;99886.56;;;16.38;100.00
50430;BME280;36359;41.556;-8.418;2023-04-27T03:21:24;99898.03;;;16.48;100.00
50430;BME280;36359;41.556;-8.418;2023-04-27T03:23:51;99900.97;;;16.74;100.00
50430;BME280;36359;41.556;-8.418;2023-04-27T03:26:17;99896.19;;;16.83;100.00
50430;BME280;36359;41.556;-8.418;2023-04-27T03:28:43;99893.88;;;16.80;100.00
50430;BME280;36359;41.556;-8.418;2023-04-27T03:31:11;99898.13;;;16.89;100.00
50430;BME280;36359;41.556;-8.418;2023-04-27T03:33:37;99900.06;;;16.95;100.00
50430;BME280;36359;41.556;-8.418;2023-04-27T03:36:04;99904.91;;;16.93;100.00
50430;BME280;36359;41.556;-8.418;2023-04-27T03:38:32;99899.41;;;16.93;100.00
50430;BME280;36359;41.556;-8.418;2023-04-27T03:40:59;99901.53;;;16.91;100.00
50430;BME280;36359;41.556;-8.418;2023-04-27T03:43:24;99902.81;;;16.95;100.00
50430;BME280;36359;41.556;-8.418;2023-04-27T03:45:50;99904.97;;;17.07;100.00
50430;BME280;36359;41.556;-8.418;2023-04-27T03:48:17;99908.31;;;17.02;100.00
50430;BME280;36359;41.556;-8.418;2023-04-27T03:50:44;99905.38;;;17.03;100.00
50430;BME280;36359;41.556;-8.418;2023-04-27T03:53:11;99901.75;;;16.96;100.00
50430;BME280;36359;41.556;-8.418;2023-04-27T03:55:41;99896.31;;;16.75;100.00
50430;BME280;36359;41.556;-8.418;2023-04-27T03:58:08;99895.81;;;16.37;100.00
50430;BME280;36359;41.556;-8.418;2023-04-27T04:00:35;99901.25;;;16.58;100.00
50430;BME280;36359;41.556;-8.418;2023-04-27T04:03:02;99884.81;;;16.58;100.00
50430;BME280;36359;41.556;-8.418;2023-04-27T04:07:58;99879.84;;;16.68;100.00
50430;BME280;36359;41.556;-8.418;2023-04-27T04:10:25;99873.38;;;16.76;100.00
50430;BME280;36359;41.556;-8.418;2023-04-27T04:12:51;99885.13;;;16.98;100.00
50430;BME280;36359;41.556;-8.418;2023-04-27T04:15:17;99881.25;;;16.86;100.00
50430;BME280;36359;41.556;-8.418;2023-04-27T04:17:44;99878.59;;;16.71;100.00
50430;BME280;36359;41.556;-8.418;2023-04-27T04:20:12;99882.06;;;16.79;100.00
50430;BME280;36359;41.556;-8.418;2023-04-27T04:22:38;99892.56;;;16.76;100.00
50430;BME280;36359;41.556;-8.418;2023-04-27T04:25:05;99896.28;;;16.68;100.00
50430;BME280;36359;41.556;-8.418;2023-04-27T04:27:31;99899.59;;;16.64;100.00
50430;BME280;36359;41.556;-8.418;2023-04-27T04:29:58;99899.13;;;16.53;100.00
50430;BME280;36359;41.556;-8.418;2023-04-27T04:32:31;99891.75;;;16.54;100.00
50430;BME280;36359;41.556;-8.418;2023-04-27T04:34:58;99886.72;;;16.57;100.00
50430;BME280;36359;41.556;-8.418;2023-04-27T04:37:27;99890.50;;;16.56;100.00
50430;BME280;36359;41.556;-8.418;2023-04-27T04:39:54;99882.91;;;16.80;100.00
50430;BME280;36359;41.556;-8.418;2023-04-27T04:42:19;99884.59;;;16.81;100.00
50430;BME280;36359;41.556;-8.418;2023-04-27T04:44:45;99880.63;;;16.90;100.00
50430;BME280;36359;41.556;-8.418;2023-04-27T04:47:12;99881.25;;;16.86;100.00
50430;BME280;36359;41.556;-8.418;2023-04-27T04:49:37;99884.81;;;16.79;100.00
50430;BME280;36359;41.556;-8.418;2023-04-27T04:52:04;99891.00;;;16.67;100.00
50430;BME280;36359;41.556;-8.418;2023-04-27T04:54:31;99882.44;;;16.76;100.00
50430;BME280;36359;41.556;-8.418;2023-04-27T04:56:57;99876.13;;;16.76;100.00
50430;BME280;36359;41.556;-8.418;2023-04-27T04:59:25;99870.88;;;16.81;100.00
50430;BME280;36359;41.556;-8.418;2023-04-27T05:01:50;99870.16;;;16.72;100.00
50430;BME280;36359;41.556;-8.418;2023-04-27T05:04:20;99864.91;;;16.71;100.00
50430;BME280;36359;41.556;-8.418;2023-04-27T05:06:46;99869.81;;;16.47;100.00
50430;BME280;36359;41.556;-8.418;2023-04-27T05:09:12;99862.84;;;16.45;100.00
50430;BME280;36359;41.556;-8.418;2023-04-27T05:11:38;99869.00;;;16.53;100.00
50430;BME280;36359;41.556;-8.418;2023-04-27T05:14:03;99860.78;;;16.53;100.00
50430;BME280;36359;41.556;-8.418;2023-04-27T05:16:29;99867.09;;;16.54;100.00
50430;BME280;36359;41.556;-8.418;2023-04-27T05:18:54;99870.03;;;16.52;100.00
50430;BME280;36359;41.556;-8.418;2023-04-27T05:21:20;99873.16;;;16.49;100.00
50430;BME280;36359;41.556;-8.418;2023-04-27T05:23:47;99872.53;;;16.47;100.00
50430;BME280;36359;41.556;-8.418;2023-04-27T05:26:16;99873.72;;;16.38;100.00
50430;BME280;36359;41.556;-8.418;2023-04-27T05:28:43;99867.06;;;16.47;100.00
50430;BME280;36359;41.556;-8.418;2023-04-27T05:31:09;99871.75;;;16.53;100.00
50430;BME280;36359;41.556;-8.418;2023-04-27T05:33:35;99871.88;;;16.45;100.00
50430;BME280;36359;41.556;-8.418;2023-04-27T05:38:32;99878.91;;;16.54;100.00
50430;BME280;36359;41.556;-8.418;2023-04-27T05:41:00;99870.66;;;16.48;100.00
50430;BME280;36359;41.556;-8.418;2023-04-27T05:43:26;99878.97;;;16.33;100.00
50430;BME280;36359;41.556;-8.418;2023-04-27T05:45:52;99878.31;;;16.31;100.00
50430;BME280;36359;41.556;-8.418;2023-04-27T05:48:18;99880.84;;;16.32;100.00
50430;BME280;36359;41.556;-8.418;2023-04-27T05:50:44;99882.22;;;16.22;100.00
50430;BME280;36359;41.556;-8.418;2023-04-27T05:53:10;99875.00;;;16.14;100.00
50430;BME280;36359;41.556;-8.418;2023-04-27T05:55:36;99873.31;;;16.13;100.00
50430;BME280;36359;41.556;-8.418;2023-04-27T05:58:02;99873.50;;;16.11;100.00
50430;BME280;36359;41.556;-8.418;2023-04-27T06:00:28;99872.34;;;16.21;100.00
50430;BME280;36359;41.556;-8.418;2023-04-27T06:02:53;99868.94;;;16.19;100.00
50430;BME280;36359;41.556;-8.418;2023-04-27T06:05:19;99882.75;;;16.10;100.00
50430;BME280;36359;41.556;-8.418;2023-04-27T06:07:46;99890.31;;;16.08;100.00
50430;BME280;36359;41.556;-8.418;2023-04-27T06:10:12;99898.84;;;15.99;100.00
50430;BME280;36359;41.556;-8.418;2023-04-27T06:12:38;99908.75;;;15.63;100.00
50430;BME280;36359;41.556;-8.418;2023-04-27T06:15:04;99898.78;;;15.71;100.00
50430;BME280;36359;41.556;-8.418;2023-04-27T06:17:35;99908.25;;;15.89;100.00
50430;BME280;36359;41.556;-8.418;2023-04-27T06:20:00;99901.66;;;16.27;100.00
50430;BME280;36359;41.556;-8.418;2023-04-27T06:22:26;99912.84;;;16.32;100.00
50430;BME280;36359;41.556;-8.418;2023-04-27T06:24:52;99912.44;;;16.35;100.00
50430;BME280;36359;41.556;-8.418;2023-04-27T06:27:18;99927.03;;;16.42;100.00
50430;BME280;36359;41.556;-8.418;2023-04-27T06:29:43;99927.44;;;16.39;100.00
50430;BME280;36359;41.556;-8.418;2023-04-27T06:32:09;99919.31;;;16.52;100.00
50430;BME280;36359;41.556;-8.418;2023-04-27T06:34:35;99916.44;;;16.61;100.00
50430;BME280;36359;41.556;-8.418;2023-04-27T06:37:01;99920.44;;;16.58;100.00
50430;BME280;36359;41.556;-8.418;2023-04-27T06:39:26;99917.41;;;16.74;100.00
50430;BME280;36359;41.556;-8.418;2023-04-27T06:41:52;99916.19;;;16.77;100.00
50430;BME280;36359;41.556;-8.418;2023-04-27T06:44:18;99908.44;;;16.87;100.00
50430;BME280;36359;41.556;-8.418;2023-04-27T06:46:43;99904.50;;;16.96;100.00
50430;BME280;36359;41.556;-8.418;2023-04-27T06:49:09;99909.13;;;16.96;100.00
50430;BME280;36359;41.556;-8.418;2023-04-27T06:51:35;99911.28;;;17.00;100.00
50430;BME280;36359;41.556;-8.418;2023-04-27T06:54:01;99911.50;;;17.06;100.00
50430;BME280;36359;41.556;-8.418;2023-04-27T06:56:28;99906.81;;;16.99;100.00
50430;BME280;36359;41.556;-8.418;2023-04-27T06:58:53;99911.00;;;16.89;100.00
50430;BME280;36359;41.556;-8.418;2023-04-27T07:01:19;99906.72;;;16.58;100.00
50430;BME280;36359;41.556;-8.418;2023-04-27T07:03:45;99912.66;;;16.62;100.00
50430;BME280;36359;41.556;-8.418;2023-04-27T07:06:11;99912.25;;;16.86;100.00
50430;BME280;36359;41.556;-8.418;2023-04-27T07:08:36;99913.97;;;16.66;100.00
50430;BME280;36359;41.556;-8.418;2023-04-27T07:11:02;99927.47;;;16.95;100.00
50430;BME280;36359;41.556;-8.418;2023-04-27T07:13:29;99917.06;;;16.84;100.00
50430;BME280;36359;41.556;-8.418;2023-04-27T07:15:55;99923.50;;;17.05;100.00
50430;BME280;36359;41.556;-8.418;2023-04-27T07:18:26;99918.34;;;17.23;100.00
50430;BME280;36359;41.556;-8.418;2023-04-27T07:20:54;99914.19;;;17.34;100.00
50430;BME280;36359;41.556;-8.418;2023-04-27T07:23:22;99922.44;;;17.40;100.00
50430;BME280;36359;41.556;-8.418;2023-04-27T07:25:49;99938.38;;;17.65;100.00
50430;BME280;36359;41.556;-8.418;2023-04-27T07:28:15;99905.53;;;17.37;92.47
50430;BME280;36359;41.556;-8.418;2023-04-27T07:30:41;99924.19;;;17.61;90.62
50430;BME280;36359;41.556;-8.418;2023-04-27T07:33:08;99895.91;;;17.47;91.71
50430;BME280;36359;41.556;-8.418;2023-04-27T07:35:36;99906.72;;;17.69;95.40
50430;BME280;36359;41.556;-8.418;2023-04-27T07:38:02;99962.78;;;18.08;100.00
50430;BME280;36359;41.556;-8.418;2023-04-27T07:40:29;99946.53;;;18.06;100.00
50430;BME280;36359;41.556;-8.418;2023-04-27T07:42:55;99935.75;;;18.05;100.00
50430;BME280;36359;41.556;-8.418;2023-04-27T07:45:22;99956.31;;;18.49;99.48
50430;BME280;36359;41.556;-8.418;2023-04-27T07:47:56;99945.13;;;18.50;97.15
50430;BME280;36359;41.556;-8.418;2023-04-27T07:50:22;99930.28;;;18.38;86.98
50430;BME280;36359;41.556;-8.418;2023-04-27T07:52:51;99937.09;;;18.62;85.93
50430;BME280;36359;41.556;-8.418;2023-04-27T07:55:17;99933.91;;;18.78;87.22
50430;BME280;36359;41.556;-8.418;2023-04-27T07:57:43;99914.69;;;18.78;83.75
50430;BME280;36359;41.556;-8.418;2023-04-27T08:00:09;99934.09;;;18.70;89.48
50430;BME280;36359;41.556;-8.418;2023-04-27T08:02:45;99920.59;;;18.89;90.90
50430;BME280;36359;41.556;-8.418;2023-04-27T08:05:15;99927.78;;;18.63;91.62
50430;BME280;36359;41.556;-8.418;2023-04-27T08:07:41;99896.69;;;18.69;89.87
50430;BME280;36359;41.556;-8.418;2023-04-27T08:10:07;99927.78;;;18.83;87.43
50430;BME280;36359;41.556;-8.418;2023-04-27T08:12:33;99953.56;;;19.02;86.19
50430;BME280;36359;41.556;-8.418;2023-04-27T08:14:59;99931.56;;;18.95;85.73
50430;BME280;36359;41.556;-8.418;2023-04-27T08:17:25;99962.38;;;19.31;82.99
50430;BME280;36359;41.556;-8.418;2023-04-27T08:19:51;99950.97;;;19.20;86.96
50430;BME280;36359;41.556;-8.418;2023-04-27T08:22:17;99946.88;;;19.43;88.17
50430;BME280;36359;41.556;-8.418;2023-04-27T08:24:43;99941.63;;;19.41;81.94
50430;BME280;36359;41.556;-8.418;2023-04-27T08:27:09;99939.91;;;19.40;84.23
50430;BME280;36359;41.556;-8.418;2023-04-27T08:29:35;99953.47;;;19.42;83.77
50430;BME280;36359;41.556;-8.418;2023-04-27T08:32:02;99961.06;;;19.53;83.95
50430;BME280;36359;41.556;-8.418;2023-04-27T08:34:28;99960.38;;;19.58;83.60
50430;BME280;36359;41.556;-8.418;2023-04-27T08:36:55;99968.66;;;19.51;85.20
50430;BME280;36359;41.556;-8.418;2023-04-27T08:39:22;99972.25;;;19.65;83.78
50430;BME280;36359;41.556;-8.418;2023-04-27T08:41:48;99978.72;;;19.84;83.88
50430;BME280;36359;41.556;-8.418;2023-04-27T08:44:14;99964.88;;;19.97;85.84
50430;BME280;36359;41.556;-8.418;2023-04-27T08:46:40;99953.59;;;20.05;82.35
50430;BME280;36359;41.556;-8.418;2023-04-27T08:49:06;99948.94;;;20.06;83.95
50430;BME280;36359;41.556;-8.418;2023-04-27T08:51:33;99952.56;;;20.06;84.36
50430;BME280;36359;41.556;-8.418;2023-04-27T08:53:59;99961.97;;;19.85;83.68
50430;BME280;36359;41.556;-8.418;2023-04-27T08:56:27;99962.53;;;20.01;82.75
50430;BME280;36359;41.556;-8.418;2023-04-27T08:58:54;99961.22;;;20.10;82.83
50430;BME280;36359;41.556;-8.418;2023-04-27T09:01:22;99958.38;;;20.23;82.94
50430;BME280;36359;41.556;-8.418;2023-04-27T09:03:55;99963.16;;;20.34;82.41
50430;BME280;36359;41.556;-8.418;2023-04-27T09:06:31;99967.72;;;20.54;79.95
50430;BME280;36359;41.556;-8.418;2023-04-27T09:08:58;99967.16;;;20.70;80.48
50430;BME280;36359;41.556;-8.418;2023-04-27T09:11:31;99954.75;;;20.86;78.32
50430;BME280;36359;41.556;-8.418;2023-04-27T09:13:58;99951.69;;;20.94;76.28
50430;BME280;36359;41.556;-8.418;2023-04-27T09:16:30;99956.41;;;20.87;76.27
50430;BME280;36359;41.556;-8.418;2023-04-27T09:21:41;99955.34;;;20.88;75.36
50430;BME280;36359;41.556;-8.418;2023-04-27T09:24:12;99960.44;;;21.09;75.42
50430;BME280;36359;41.556;-8.418;2023-04-27T09:26:39;99961.84;;;21.19;74.28
50430;BME280;36359;41.556;-8.418;2023-04-27T09:29:07;99961.28;;;21.10;73.52
50430;BME280;36359;41.556;-8.418;2023-04-27T09:31:34;99962.13;;;21.10;73.63
50430;BME280;36359;41.556;-8.418;2023-04-27T09:34:00;99974.72;;;21.25;74.11
50430;BME280;36359;41.556;-8.418;2023-04-27T09:36:27;99970.94;;;21.44;73.57
50430;BME280;36359;41.556;-8.418;2023-04-27T09:38:53;99965.84;;;21.41;72.95
50430;BME280;36359;41.556;-8.418;2023-04-27T09:41:20;99964.78;;;21.42;73.83
50430;BME280;36359;41.556;-8.418;2023-04-27T09:43:46;99965.41;;;21.63;73.09
50430;BME280;36359;41.556;-8.418;2023-04-27T09:46:13;99968.13;;;21.81;72.07
50430;BME280;36359;41.556;-8.418;2023-04-27T09:48:39;99962.47;;;21.76;71.26
50430;BME280;36359;41.556;-8.418;2023-04-27T09:51:06;99962.44;;;21.94;70.40
50430;BME280;36359;41.556;-8.418;2023-04-27T09:53:36;99963.44;;;21.82;74.71
50430;BME280;36359;41.556;-8.418;2023-04-27T10:01:53;99970.28;;;21.97;71.42
50430;BME280;36359;41.556;-8.418;2023-04-27T10:07:12;99964.03;;;22.32;72.72
50430;BME280;36359;41.556;-8.418;2023-04-27T10:09:49;99961.28;;;22.32;73.19
50430;BME280;36359;41.556;-8.418;2023-04-27T10:12:25;99960.41;;;22.62;71.00
50430;BME280;36359;41.556;-8.418;2023-04-27T10:14:57;99958.59;;;22.79;70.22
50430;BME280;36359;41.556;-8.418;2023-04-27T10:17:34;99950.22;;;22.86;70.40
50430;BME280;36359;41.556;-8.418;2023-04-27T10:22:44;99944.34;;;22.40;67.98
50430;BME280;36359;41.556;-8.418;2023-04-27T10:25:23;99971.13;;;22.94;68.02
50430;BME280;36359;41.556;-8.418;2023-04-27T10:27:55;99956.25;;;22.95;67.65
50430;BME280;36359;41.556;-8.418;2023-04-27T10:30:30;99912.94;;;22.65;72.80
50430;BME280;36359;41.556;-8.418;2023-04-27T10:32:57;99933.84;;;23.31;66.58
50430;BME280;36359;41.556;-8.418;2023-04-27T10:35:40;99958.28;;;23.11;68.75
50430;BME280;36359;41.556;-8.418;2023-04-27T10:40:44;99928.19;;;22.91;67.91
50430;BME280;36359;41.556;-8.418;2023-04-27T10:43:16;99921.31;;;22.94;68.77
50430;BME280;36359;41.556;-8.418;2023-04-27T10:45:43;99919.81;;;22.98;66.71
50430;BME280;36359;41.556;-8.418;2023-04-27T10:48:12;99918.44;;;23.35;67.28
50430;BME280;36359;41.556;-8.418;2023-04-27T10:50:49;99920.75;;;23.27;67.20
50430;BME280;36359;41.556;-8.418;2023-04-27T10:53:16;99932.47;;;23.57;63.24
50430;BME280;36359;41.556;-8.418;2023-04-27T10:55:43;99914.19;;;23.56;63.00
50430;BME280;36359;41.556;-8.418;2023-04-27T10:58:08;99927.94;;;23.92;63.61
50430;BME280;36359;41.556;-8.418;2023-04-27T11:00:38;99906.41;;;23.42;67.49
50430;BME280;36359;41.556;-8.418;2023-04-27T11:03:18;99915.47;;;23.66;62.55
50430;BME280;36359;41.556;-8.418;2023-04-27T11:05:48;99926.97;;;23.34;65.69
50430;BME280;36359;41.556;-8.418;2023-04-27T11:08:16;99943.50;;;23.81;63.23
50430;BME280;36359;41.556;-8.418;2023-04-27T11:10:44;99929.38;;;24.11;62.97
50430;BME280;36359;41.556;-8.418;2023-04-27T11:13:16;99890.59;;;24.11;63.50
50430;BME280;36359;41.556;-8.418;2023-04-27T11:15:54;99900.09;;;24.15;62.00
50430;BME280;36359;41.556;-8.418;2023-04-27T11:18:23;99934.25;;;24.50;63.25
50430;BME280;36359;41.556;-8.418;2023-04-27T11:20:50;99933.25;;;24.73;62.82
50430;BME280;36359;41.556;-8.418;2023-04-27T11:23:29;99924.13;;;23.69;67.03
50430;BME280;36359;41.556;-8.418;2023-04-27T11:26:14;99899.41;;;23.39;67.09
50430;BME280;36359;41.556;-8.418;2023-04-27T11:28:42;99910.16;;;23.64;66.60
50430;BME280;36359;41.556;-8.418;2023-04-27T11:31:08;99906.94;;;24.58;60.94
50430;BME280;36359;41.556;-8.418;2023-04-27T11:33:34;99920.41;;;24.66;59.73
50430;BME280;36359;41.556;-8.418;2023-04-27T11:35:59;99876.44;;;24.58;59.73
50430;BME280;36359;41.556;-8.418;2023-04-27T11:38:32;99871.59;;;24.65;57.50
50430;BME280;36359;41.556;-8.418;2023-04-27T11:41:00;99872.75;;;24.53;58.34
50430;BME280;36359;41.556;-8.418;2023-04-27T11:43:26;99902.91;;;25.38;56.60
50430;BME280;36359;41.556;-8.418;2023-04-27T11:45:52;99888.31;;;25.09;58.40
50430;BME280;36359;41.556;-8.418;2023-04-27T11:48:28;99875.75;;;24.85;59.77
50430;BME280;36359;41.556;-8.418;2023-04-27T11:51:01;99866.13;;;24.54;59.42
50430;BME280;36359;41.556;-8.418;2023-04-27T11:53:38;99891.09;;;24.54;61.46
50430;BME280;36359;41.556;-8.418;2023-04-27T11:56:17;99876.34;;;25.09;57.44
50430;BME280;36359;41.556;-8.418;2023-04-27T11:58:45;99882.41;;;25.06;55.63
50430;BME280;36359;41.556;-8.418;2023-04-27T12:01:19;99862.47;;;25.26;58.21
50430;BME280;36359;41.556;-8.418;2023-04-27T12:03:44;99884.88;;;25.41;54.69
50430;BME280;36359;41.556;-8.418;2023-04-27T12:06:10;99890.19;;;25.43;57.22
50430;BME280;36359;41.556;-8.418;2023-04-27T12:08:39;99900.38;;;25.37;57.42
50430;BME280;36359;41.556;-8.418;2023-04-27T12:11:08;99861.69;;;25.30;54.49
50430;BME280;36359;41.556;-8.418;2023-04-27T12:13:35;99882.75;;;25.48;54.04
50430;BME280;36359;41.556;-8.418;2023-04-27T12:16:03;99862.59;;;25.14;51.91
50430;BME280;36359;41.556;-8.418;2023-04-27T12:18:35;99862.38;;;25.21;52.56
50430;BME280;36359;41.556;-8.418;2023-04-27T12:21:02;99890.81;;;25.28;53.96
50430;BME280;36359;41.556;-8.418;2023-04-27T12:23:31;99889.97;;;25.49;53.88
50430;BME280;36359;41.556;-8.418;2023-04-27T12:25:57;99883.31;;;25.72;53.18
50430;BME280;36359;41.556;-8.418;2023-04-27T12:28:22;99887.22;;;25.98;52.27
50430;BME280;36359;41.556;-8.418;2023-04-27T12:30:48;99879.88;;;25.87;53.06
50430;BME280;36359;41.556;-8.418;2023-04-27T12:33:14;99889.38;;;25.91;54.80
50430;BME280;36359;41.556;-8.418;2023-04-27T12:35:41;99878.78;;;25.88;56.02
50430;BME280;36359;41.556;-8.418;2023-04-27T12:38:06;99873.81;;;25.90;54.14
50430;BME280;36359;41.556;-8.418;2023-04-27T12:40:32;99880.00;;;25.75;56.11
50430;BME280;36359;41.556;-8.418;2023-04-27T12:42:58;99884.19;;;25.78;56.30
50430;BME280;36359;41.556;-8.418;2023-04-27T12:45:24;99881.88;;;25.70;57.00
50430;BME280;36359;41.556;-8.418;2023-04-27T12:47:50;99891.38;;;25.96;55.54
50430;BME280;36359;41.556;-8.418;2023-04-27T12:50:17;99883.00;;;26.18;56.61
50430;BME280;36359;41.556;-8.418;2023-04-27T12:52:43;99885.44;;;26.46;54.96
50430;BME280;36359;41.556;-8.418;2023-04-27T12:55:09;99892.25;;;26.28;54.55
50430;BME280;36359;41.556;-8.418;2023-04-27T12:57:35;99886.53;;;26.13;54.92
50430;BME280;36359;41.556;-8.418;2023-04-27T13:00:01;99889.16;;;26.25;55.54
50430;BME280;36359;41.556;-8.418;2023-04-27T13:02:26;99880.03;;;26.02;54.39
50430;BME280;36359;41.556;-8.418;2023-04-27T13:04:52;99882.72;;;25.92;54.71